Time;durP1;ratioP1;P1;durP2;ratioP2;P2;SDS_P1;SDS_P2;PMS_P1;PMS_P2;Temp;Humidity;BMP_temperature;BMP_pressure;BME280_temperature;BME280_humidity;BME280_pressure;Samples;Min_cycle;Max_cycle;Signal;HPM_P1;HPM_P2
2023/01/07 00:01:23;;;;;;;18.10;12.00;;;8.30;99.90;;;;;;5093633;28;20126;-70
2023/01/07 00:03:50;;;;;;;19.02;12.25;;;8.40;99.90;;;;;;5093717;28;20040;-70
2023/01/07 00:06:25;;;;;;;19.45;12.98;;;8.50;99.90;;;;;;5097891;28;20040;-71
2023/01/07 00:08:53;;;;;;;17.58;11.88;;;8.50;99.90;;;;;;5082064;28;20496;-70
2023/01/07 00:11:22;;;;;;;20.90;13.05;;;8.50;99.90;;;;;;5100381;28;20079;-71
2023/01/07 00:13:49;;;;;;;18.98;12.95;;;8.50;99.90;;;;;;5100868;28;20079;-70
2023/01/07 00:16:18;;;;;;;22.85;13.85;;;8.60;99.90;;;;;;5100286;28;20048;-70
2023/01/07 00:18:44;;;;;;;23.05;13.77;;;8.60;99.90;;;;;;5100211;28;20051;-70
2023/01/07 00:21:13;;;;;;;24.08;14.60;;;8.60;99.90;;;;;;5100126;28;20047;-70
2023/01/07 00:23:40;;;;;;;22.38;14.05;;;8.70;99.90;;;;;;5066347;28;20048;-70
2023/01/07 00:26:28;;;;;;;23.13;13.70;;;8.70;99.90;;;;;;5082576;28;20052;-70
2023/01/07 00:28:54;;;;;;;21.52;13.75;;;8.70;99.90;;;;;;5099736;28;20044;-69
2023/01/07 00:31:28;;;;;;;19.52;13.43;;;8.70;99.90;;;;;;5100141;28;20039;-71
2023/01/07 00:36:22;;;;;;;24.95;14.25;;;8.80;99.90;;;;;;5100280;28;20056;-70
2023/01/07 00:38:57;;;;;;;24.95;15.57;;;8.80;99.90;;;;;;5082580;28;20048;-70
2023/01/07 00:41:23;;;;;;;19.67;13.05;;;8.90;99.90;;;;;;5100927;28;20035;-70
2023/01/07 00:43:49;;;;;;;23.00;14.48;;;8.90;99.90;;;;;;5082519;28;20052;-70
2023/01/07 00:46:15;;;;;;;21.77;13.10;;;8.90;99.90;;;;;;5101982;28;20353;-70
2023/01/07 00:48:41;;;;;;;23.23;14.48;;;8.90;99.90;;;;;;5100627;28;20044;-70
2023/01/07 00:51:12;;;;;;;20.67;13.50;;;8.90;99.90;;;;;;5100616;28;20048;-70
2023/01/07 00:53:38;;;;;;;23.63;13.63;;;8.90;99.90;;;;;;5082084;28;20054;-70
2023/01/07 00:56:04;;;;;;;23.05;14.05;;;9.00;99.90;;;;;;5081885;28;20079;-69
2023/01/07 00:58:30;;;;;;;22.80;14.25;;;9.00;99.90;;;;;;5081478;28;20097;-69
2023/01/07 01:00:57;;;;;;;22.55;13.70;;;9.00;99.90;;;;;;5099830;28;20051;-70
2023/01/07 01:03:24;;;;;;;19.80;12.70;;;9.00;99.90;;;;;;5099838;28;20056;-70
2023/01/07 01:05:50;;;;;;;20.83;12.73;;;9.10;99.90;;;;;;5099828;28;20173;-70
2023/01/07 01:08:17;;;;;;;23.73;14.57;;;9.10;99.90;;;;;;5099822;28;20052;-70
2023/01/07 01:10:44;;;;;;;22.00;13.73;;;9.10;99.90;;;;;;5099792;28;20044;-70
2023/01/07 01:13:16;;;;;;;23.52;13.85;;;9.10;99.90;;;;;;5099844;28;20047;-70
2023/01/07 01:15:46;;;;;;;24.42;14.45;;;9.10;99.90;;;;;;5099502;28;20464;-70
2023/01/07 01:18:13;;;;;;;25.23;13.85;;;9.20;99.90;;;;;;5097117;28;20368;-70
2023/01/07 01:20:39;;;;;;;25.15;14.23;;;9.20;99.90;;;;;;5078895;28;20052;-70
2023/01/07 01:23:06;;;;;;;21.02;13.40;;;9.20;99.90;;;;;;5079126;28;20044;-70
2023/01/07 01:25:32;;;;;;;22.02;13.82;;;9.30;99.90;;;;;;5097128;28;20052;-71
2023/01/07 01:27:57;;;;;;;22.67;14.35;;;9.30;99.90;;;;;;5078536;28;20503;-70
2023/01/07 01:30:24;;;;;;;23.77;13.50;;;9.30;99.90;;;;;;5096685;28;20055;-71
2023/01/07 01:32:49;;;;;;;21.60;14.00;;;9.30;99.90;;;;;;5078751;28;20065;-71
2023/01/07 01:35:15;;;;;;;23.70;13.70;;;9.30;99.90;;;;;;5096237;28;20040;-71
2023/01/07 01:37:41;;;;;;;21.88;13.15;;;9.30;99.90;;;;;;5096952;28;20134;-71
2023/01/07 01:40:07;;;;;;;25.25;15.02;;;9.30;99.90;;;;;;5096108;28;20464;-71
2023/01/07 01:42:33;;;;;;;22.50;14.43;;;9.30;99.90;;;;;;5078534;28;20078;-71
2023/01/07 01:45:00;;;;;;;23.25;14.32;;;9.40;99.90;;;;;;5095976;28;20468;-71
2023/01/07 01:47:51;;;;;;;25.25;14.85;;;9.40;99.90;;;;;;5078149;28;20483;-70
2023/01/07 01:50:31;;;;;;;24.88;14.82;;;9.40;99.90;;;;;;5095998;28;20105;-70
2023/01/07 01:53:09;;;;;;;24.35;13.95;;;9.50;99.90;;;;;;5096781;28;20075;-70
2023/01/07 01:55:39;;;;;;;25.05;14.23;;;9.50;99.90;;;;;;5078147;28;20092;-71
2023/01/07 01:58:15;;;;;;;21.77;13.85;;;9.60;99.90;;;;;;5095764;28;20047;-70
2023/01/07 02:00:42;;;;;;;25.77;15.05;;;9.60;99.90;;;;;;5061653;28;20117;-70
2023/01/07 02:03:12;;;;;;;23.35;14.32;;;9.60;99.90;;;;;;5095590;28;20055;-70
2023/01/07 02:05:40;;;;;;;24.00;14.30;;;9.50;99.90;;;;;;5095620;28;20479;-70
2023/01/07 02:08:06;;;;;;;22.17;14.82;;;9.60;99.90;;;;;;5095595;28;20059;-70
2023/01/07 02:10:32;;;;;;;24.35;14.52;;;9.60;99.90;;;;;;5095580;28;20043;-70
2023/01/07 02:13:00;;;;;;;23.15;14.02;;;9.60;99.90;;;;;;5095615;28;20039;-70
2023/01/07 02:15:46;;;;;;;20.92;12.98;;;9.60;99.90;;;;;;5077596;28;20121;-70
2023/01/07 02:18:42;;;;;;;22.55;14.70;;;9.70;99.90;;;;;;5077173;28;20495;-70
2023/01/07 02:21:17;;;;;;;20.90;13.20;;;9.70;99.90;;;;;;5095878;28;20059;-70
2023/01/07 02:24:10;;;;;;;23.45;13.82;;;9.70;99.90;;;;;;5095672;28;20070;-70
2023/01/07 02:26:55;;;;;;;23.33;14.07;;;9.70;99.90;;;;;;5095306;28;20092;-70
2023/01/07 02:29:43;;;;;;;20.83;13.30;;;9.70;99.90;;;;;;5077384;28;20051;-71
2023/01/07 02:32:09;;;;;;;20.98;13.23;;;9.70;99.90;;;;;;5095156;28;20036;-70
2023/01/07 02:35:00;;;;;;;22.42;14.25;;;9.80;99.90;;;;;;5095046;28;20083;-70
2023/01/07 02:37:53;;;;;;;22.40;13.70;;;9.70;99.90;;;;;;5095621;28;20048;-70
2023/01/07 02:40:22;;;;;;;;;;;9.80;99.90;;;;;;5095406;28;20040;-70
2023/01/07 02:43:22;;;;;;;22.40;14.05;;;9.70;99.90;;;;;;5076820;28;19920;-70
2023/01/07 02:46:01;;;;;;;20.08;12.68;;;9.70;99.90;;;;;;5094921;28;20053;-71
2023/01/07 02:48:28;;;;;;;24.95;14.95;;;9.80;99.90;;;;;;5095369;28;20044;-70
2023/01/07 02:50:54;;;;;;;23.38;14.52;;;9.80;99.90;;;;;;5094809;28;20131;-70
2023/01/07 02:53:20;;;;;;;26.05;14.80;;;9.80;99.90;;;;;;5076631;28;20127;-70
2023/01/07 02:56:23;;;;;;;25.30;15.50;;;9.80;99.90;;;;;;5076693;28;20048;-70
2023/01/07 02:59:05;;;;;;;24.85;15.65;;;9.90;99.90;;;;;;5094392;28;20059;-70
2023/01/07 03:01:57;;;;;;;23.05;14.57;;;9.90;99.90;;;;;;5094414;28;20055;-71
2023/01/07 03:05:14;;;;;;;26.95;15.23;;;9.90;99.90;;;;;;5076486;28;20144;-71
2023/01/07 03:08:12;;;;;;;22.48;15.25;;;9.80;99.90;;;;;;5032579;28;20059;-70
2023/01/07 03:10:56;;;;;;;25.02;15.77;;;9.90;99.90;;;;;;5094757;28;20048;-70
2023/01/07 03:13:28;;;;;;;26.20;16.25;;;9.90;99.90;;;;;;5094440;28;20042;-70
2023/01/07 03:16:11;;;;;;;24.60;15.15;;;9.90;99.90;;;;;;5060137;28;20052;-71
2023/01/07 03:18:47;;;;;;;23.30;14.70;;;9.90;99.90;;;;;;5094353;28;20044;-71
2023/01/07 03:21:16;;;;;;;21.13;14.30;;;9.90;99.90;;;;;;5059990;28;20365;-70
2023/01/07 03:23:52;;;;;;;19.75;13.40;;;9.90;99.90;;;;;;5094214;28;20430;-70
2023/01/07 03:26:22;;;;;;;20.95;14.35;;;9.90;99.90;;;;;;5094962;28;20094;-70
2023/01/07 03:28:50;;;;;;;23.02;14.55;;;9.90;99.90;;;;;;5094325;28;20044;-70
2023/01/07 03:31:17;;;;;;;19.95;14.30;;;9.90;99.90;;;;;;5094414;28;20478;-70
2023/01/07 03:33:55;;;;;;;21.38;14.52;;;9.90;99.90;;;;;;5094623;28;20048;-70
2023/01/07 03:36:28;;;;;;;22.73;15.18;;;10.00;99.90;;;;;;5076552;28;20051;-70
2023/01/07 03:38:55;;;;;;;21.13;14.48;;;9.90;99.90;;;;;;5094642;28;20438;-70
2023/01/07 03:44:05;;;;;;;19.38;14.35;;;9.90;99.90;;;;;;5076303;28;20051;-70
2023/01/07 03:46:33;;;;;;;18.65;13.63;;;9.90;99.90;;;;;;5093524;28;20036;-70
2023/01/07 03:48:58;;;;;;;18.88;13.90;;;10.00;99.90;;;;;;5093788;28;20044;-70
2023/01/07 03:51:24;;;;;;;20.65;14.50;;;10.00;99.90;;;;;;5094067;28;20044;-70
2023/01/07 03:53:50;;;;;;;17.92;13.18;;;10.00;99.90;;;;;;5075983;28;20135;-71
2023/01/07 03:56:15;;;;;;;20.55;14.18;;;10.00;99.90;;;;;;5093684;28;20415;-71
2023/01/07 03:58:41;;;;;;;19.63;13.60;;;10.00;99.90;;;;;;5075552;28;20380;-70
2023/01/07 04:01:07;;;;;;;20.75;12.75;;;10.00;99.90;;;;;;5094201;28;20076;-73
2023/01/07 04:03:33;;;;;;;19.52;13.40;;;10.00;99.90;;;;;;5093598;28;20040;-71
2023/01/07 04:05:58;;;;;;;16.58;12.57;;;10.00;99.90;;;;;;5093637;28;20040;-70
2023/01/07 04:08:24;;;;;;;17.10;12.25;;;10.00;99.90;;;;;;5093553;28;20407;-71
2023/01/07 04:10:50;;;;;;;20.02;13.80;;;10.00;99.90;;;;;;5093532;28;20067;-71
2023/01/07 04:13:15;;;;;;;17.02;12.35;;;10.00;99.90;;;;;;5075739;28;20048;-71
2023/01/07 04:15:41;;;;;;;17.10;12.70;;;10.00;99.90;;;;;;5075539;28;20048;-71
2023/01/07 04:18:07;;;;;;;20.42;13.27;;;10.00;99.90;;;;;;5093518;28;20047;-71
2023/01/07 04:20:33;;;;;;;19.60;12.88;;;10.00;99.90;;;;;;5094032;28;20039;-72
2023/01/07 04:22:59;;;;;;;15.75;11.95;;;10.10;99.90;;;;;;5093400;28;20036;-71
2023/01/07 04:25:24;;;;;;;17.75;12.70;;;10.10;99.90;;;;;;5094295;28;20456;-71
2023/01/07 04:27:50;;;;;;;16.63;12.15;;;10.00;99.90;;;;;;5058664;28;20105;-71
2023/01/07 04:30:16;;;;;;;16.15;12.55;;;10.10;99.90;;;;;;5075379;28;20059;-71
2023/01/07 04:32:41;;;;;;;16.20;11.70;;;10.00;99.90;;;;;;5093359;28;20040;-71
2023/01/07 04:35:08;;;;;;;16.88;11.43;;;10.00;99.90;;;;;;5075582;28;20067;-71
2023/01/07 04:37:33;;;;;;;15.85;11.73;;;10.00;99.90;;;;;;5094115;28;20048;-71
2023/01/07 04:39:59;;;;;;;15.77;11.52;;;10.00;99.90;;;;;;5093321;28;20486;-71
2023/01/07 04:42:24;;;;;;;18.38;12.45;;;10.00;99.90;;;;;;5074936;28;20040;-70
2023/01/07 04:44:50;;;;;;;17.45;11.95;;;10.10;99.90;;;;;;5093270;28;20036;-71
2023/01/07 04:47:16;;;;;;;15.00;11.50;;;10.00;99.90;;;;;;5093760;28;20479;-71
2023/01/07 04:49:41;;;;;;;16.17;11.70;;;10.00;99.90;;;;;;5093195;28;20127;-71
2023/01/07 04:52:07;;;;;;;20.70;12.90;;;10.00;99.90;;;;;;5092979;28;20051;-71
2023/01/07 04:54:33;;;;;;;18.13;12.18;;;10.00;99.90;;;;;;5096996;28;20488;-71
2023/01/07 04:56:59;;;;;;;18.15;12.77;;;10.00;99.90;;;;;;5097507;28;20048;-71
2023/01/07 04:59:24;;;;;;;18.67;13.43;;;10.00;99.90;;;;;;5096881;28;20082;-71
2023/01/07 05:01:50;;;;;;;17.38;11.60;;;10.00;99.90;;;;;;5078839;28;20054;-71
2023/01/07 05:04:16;;;;;;;16.10;11.38;;;10.00;99.90;;;;;;5062353;28;20047;-71
2023/01/07 05:06:42;;;;;;;17.45;11.82;;;10.00;99.90;;;;;;5096813;28;20446;-72
2023/01/07 05:09:07;;;;;;;16.10;11.55;;;10.00;99.90;;;;;;5096715;28;20044;-71
2023/01/07 05:11:33;;;;;;;15.70;10.90;;;10.00;99.90;;;;;;5078571;28;20040;-71
2023/01/07 05:13:59;;;;;;;15.50;11.07;;;10.10;99.90;;;;;;5096936;28;20044;-71
2023/01/07 05:16:25;;;;;;;17.70;11.77;;;10.00;99.90;;;;;;5096532;28;20051;-71
2023/01/07 05:18:51;;;;;;;15.07;10.63;;;10.00;99.90;;;;;;5096507;28;20047;-71
2023/01/07 05:21:17;;;;;;;15.07;11.10;;;10.00;99.90;;;;;;5096381;28;20051;-71
2023/01/07 05:23:43;;;;;;;13.88;11.43;;;10.00;99.90;;;;;;5096177;28;20040;-71
2023/01/07 05:26:08;;;;;;;15.32;11.15;;;10.00;99.90;;;;;;5078329;28;20056;-72
2023/01/07 05:28:34;;;;;;;15.13;11.18;;;10.00;99.90;;;;;;5096278;28;20091;-71
2023/01/07 05:31:00;;;;;;;14.23;9.85;;;10.00;99.90;;;;;;5096405;28;20048;-72
2023/01/07 05:33:26;;;;;;;17.83;10.52;;;10.00;99.90;;;;;;5096339;28;20106;-72
2023/01/07 05:35:52;;;;;;;13.65;10.10;;;9.90;99.90;;;;;;5096323;28;20052;-71
2023/01/07 05:38:17;;;;;;;13.40;10.15;;;10.00;99.90;;;;;;5062020;28;20063;-71
2023/01/07 05:40:47;;;;;;;12.52;9.50;;;10.00;99.90;;;;;;5096172;28;20048;-72
2023/01/07 05:43:13;;;;;;;11.50;9.48;;;10.00;99.90;;;;;;5078541;28;20036;-71
2023/01/07 05:45:41;;;;;;;13.73;8.95;;;10.00;99.90;;;;;;5045054;28;20051;-72
2023/01/07 05:48:07;;;;;;;12.30;9.18;;;10.00;99.90;;;;;;5097169;28;20134;-71
2023/01/07 05:50:33;;;;;;;12.85;9.52;;;10.00;99.90;;;;;;5096306;28;20466;-72
2023/01/07 05:52:58;;;;;;;14.00;9.45;;;9.90;99.90;;;;;;5062540;28;20052;-71
2023/01/07 05:55:24;;;;;;;13.73;9.00;;;10.00;99.90;;;;;;5098653;28;20475;-71
2023/01/07 05:57:50;;;;;;;12.85;9.32;;;9.90;99.90;;;;;;5097874;28;20123;-71
2023/01/07 06:00:17;;;;;;;13.52;9.73;;;9.90;99.90;;;;;;5096258;28;20057;-71
2023/01/07 06:02:43;;;;;;;10.82;8.98;;;10.00;99.90;;;;;;5077599;28;20069;-71
2023/01/07 06:05:09;;;;;;;12.73;9.48;;;9.90;99.90;;;;;;5095358;28;20055;-71
2023/01/07 06:07:35;;;;;;;12.52;9.13;;;9.90;99.90;;;;;;5095666;28;20138;-71
2023/01/07 06:10:00;;;;;;;12.65;8.40;;;9.90;99.90;;;;;;5077644;28;20123;-73
2023/01/07 06:12:26;;;;;;;12.13;9.13;;;9.90;99.90;;;;;;5060672;28;20043;-71
2023/01/07 06:14:52;;;;;;;11.52;8.55;;;9.90;99.90;;;;;;5077400;28;20040;-72
2023/01/07 06:17:18;;;;;;;11.27;7.95;;;10.00;99.90;;;;;;5077522;28;20040;-71
2023/01/07 06:19:43;;;;;;;9.82;8.13;;;9.90;99.90;;;;;;5096295;28;20065;-72
2023/01/07 06:22:09;;;;;;;11.82;8.05;;;9.90;99.90;;;;;;5095324;28;20170;-71
2023/01/07 06:24:35;;;;;;;13.30;8.55;;;9.90;99.90;;;;;;5077528;28;20044;-71
2023/01/07 06:27:00;;;;;;;13.15;8.82;;;10.00;99.90;;;;;;5095303;28;20083;-70
2023/01/07 06:29:26;;;;;;;11.40;8.35;;;9.90;99.90;;;;;;5095198;28;20105;-71
2023/01/07 06:31:52;;;;;;;10.45;8.48;;;9.90;99.90;;;;;;5044467;28;20049;-71
2023/01/07 06:34:17;;;;;;;11.10;7.93;;;9.90;99.90;;;;;;5077374;28;20043;-71
2023/01/07 06:36:43;;;;;;;11.57;8.38;;;9.90;99.90;;;;;;5077079;28;20092;-71
2023/01/07 06:39:10;;;;;;;11.60;8.50;;;10.00;99.90;;;;;;5077210;28;20361;-71
2023/01/07 06:41:35;;;;;;;10.20;8.23;;;9.90;99.90;;;;;;5094855;28;20044;-71
2023/01/07 06:44:01;;;;;;;13.27;7.68;;;9.90;99.90;;;;;;5094884;28;20055;-71
2023/01/07 06:46:27;;;;;;;9.30;7.47;;;9.90;99.90;;;;;;5095396;28;20180;-71
2023/01/07 06:48:52;;;;;;;11.75;7.88;;;9.90;99.90;;;;;;5094856;28;20044;-71
2023/01/07 06:51:18;;;;;;;10.80;7.38;;;9.90;99.90;;;;;;5076972;28;20098;-71
2023/01/07 06:53:44;;;;;;;8.55;6.65;;;9.90;99.90;;;;;;5095553;28;20430;-71
2023/01/07 06:56:09;;;;;;;10.80;8.07;;;9.90;99.90;;;;;;5094653;28;20464;-71
2023/01/07 06:58:35;;;;;;;10.50;7.57;;;9.90;99.90;;;;;;5094419;28;20044;-71
2023/01/07 07:01:06;;;;;;;8.82;7.03;;;9.90;99.90;;;;;;5094685;28;20060;-71
2023/01/07 07:03:32;;;;;;;10.43;7.20;;;9.90;99.90;;;;;;5076658;28;20040;-71
2023/01/07 07:05:58;;;;;;;8.90;7.05;;;9.90;99.90;;;;;;5076492;28;20083;-71
2023/01/07 07:08:24;;;;;;;9.13;7.07;;;9.90;99.90;;;;;;5076363;28;20084;-71
2023/01/07 07:10:49;;;;;;;10.57;6.85;;;9.90;99.90;;;;;;5094700;28;20051;-71
2023/01/07 07:13:15;;;;;;;8.35;6.65;;;9.90;99.90;;;;;;5094376;28;20482;-71
2023/01/07 07:15:41;;;;;;;9.40;6.65;;;9.90;99.90;;;;;;5075754;28;20083;-71
2023/01/07 07:18:07;;;;;;;8.32;6.40;;;9.90;99.90;;;;;;5094022;28;20044;-71
2023/01/07 07:20:33;;;;;;;9.43;6.85;;;9.90;99.90;;;;;;5094263;28;20443;-71
2023/01/07 07:23:01;;;;;;;8.52;6.40;;;9.90;99.90;;;;;;5093868;28;20471;-71
2023/01/07 07:25:27;;;;;;;8.38;6.18;;;9.90;99.90;;;;;;5076155;28;20044;-71
2023/01/07 07:27:52;;;;;;;8.35;6.05;;;9.90;99.90;;;;;;5094088;28;20048;-71
2023/01/07 07:30:18;;;;;;;10.13;6.00;;;9.90;99.90;;;;;;5076265;28;20055;-71
2023/01/07 07:32:45;;;;;;;8.73;5.95;;;9.90;99.90;;;;;;5076441;28;20056;-71
2023/01/07 07:35:11;;;;;;;8.43;6.30;;;9.90;99.90;;;;;;5059425;28;20052;-72
2023/01/07 07:37:37;;;;;;;6.85;5.68;;;8.90;99.90;;;;;;5093973;28;20044;-71
2023/01/07 07:40:04;;;;;;;9.45;6.00;;;9.90;99.90;;;;;;5093637;28;20499;-72
2023/01/07 07:42:30;;;;;;;7.80;6.00;;;9.90;99.90;;;;;;5093840;28;20036;-71
2023/01/07 07:44:56;;;;;;;9.27;5.90;;;9.90;99.90;;;;;;5059615;28;20428;-71
2023/01/07 07:47:22;;;;;;;6.95;5.63;;;9.90;99.90;;;;;;5058836;28;20131;-71
2023/01/07 07:49:49;;;;;;;6.97;5.70;;;9.90;99.90;;;;;;5093859;28;20033;-71
2023/01/07 07:52:14;;;;;;;8.70;5.88;;;9.90;99.90;;;;;;5094273;28;20048;-72
2023/01/07 07:54:41;;;;;;;9.35;5.55;;;9.90;99.90;;;;;;5093729;28;20097;-72
2023/01/07 07:57:07;;;;;;;9.90;5.72;;;9.90;99.90;;;;;;5076212;28;20052;-72
2023/01/07 07:59:32;;;;;;;7.85;5.57;;;9.90;99.90;;;;;;5075351;28;20058;-71
2023/01/07 08:01:58;;;;;;;8.25;5.40;;;9.90;99.90;;;;;;5075654;28;20043;-72
2023/01/07 08:04:24;;;;;;;8.00;5.15;;;9.90;99.90;;;;;;5094236;28;20052;-72
2023/01/07 08:06:50;;;;;;;6.20;4.88;;;9.90;99.90;;;;;;5075776;28;20040;-72
2023/01/07 08:09:15;;;;;;;7.35;5.38;;;9.90;99.90;;;;;;5076136;28;20044;-72
2023/01/07 08:11:41;;;;;;;6.07;5.03;;;9.90;99.90;;;;;;5075901;28;20066;-72
2023/01/07 08:14:08;;;;;;;7.85;5.18;;;9.90;99.90;;;;;;5075840;28;20391;-72
2023/01/07 08:16:34;;;;;;;6.80;4.28;;;9.90;99.90;;;;;;5076469;28;20065;-71
2023/01/07 08:18:59;;;;;;;6.78;5.30;;;9.90;99.90;;;;;;5094555;28;20188;-72
2023/01/07 08:21:25;;;;;;;5.45;4.15;;;9.90;99.90;;;;;;5093525;28;20044;-72
2023/01/07 08:23:50;;;;;;;6.28;4.25;;;9.90;99.90;;;;;;5093608;28;20131;-72
2023/01/07 08:26:16;;;;;;;6.22;4.15;;;9.90;99.90;;;;;;5093907;28;20499;-71
2023/01/07 08:28:42;;;;;;;5.63;4.10;;;9.90;99.90;;;;;;5097893;28;20052;-72
2023/01/07 08:31:08;;;;;;;5.28;4.30;;;9.90;99.90;;;;;;5098009;28;20080;-72
2023/01/07 08:33:37;;;;;;;6.32;4.70;;;9.90;99.90;;;;;;5097363;28;20094;-72
2023/01/07 08:36:04;;;;;;;6.05;4.15;;;9.90;99.90;;;;;;5097471;28;20087;-72
2023/01/07 08:38:31;;;;;;;7.88;4.80;;;9.90;99.90;;;;;;5097277;28;20090;-71
2023/01/07 08:40:57;;;;;;;7.00;4.07;;;9.90;99.90;;;;;;5079526;28;20480;-71
2023/01/07 08:43:23;;;;;;;6.93;4.60;;;9.90;99.90;;;;;;5097231;28;20044;-71
2023/01/07 08:45:50;;;;;;;5.25;4.05;;;9.90;99.90;;;;;;5097367;28;20055;-71
2023/01/07 08:48:15;;;;;;;4.97;4.00;;;9.90;99.90;;;;;;5097285;28;20051;-72
2023/01/07 08:50:42;;;;;;;4.78;3.80;;;9.90;99.90;;;;;;5097137;28;20044;-71
2023/01/07 08:53:07;;;;;;;5.32;4.20;;;9.90;99.90;;;;;;5097215;28;20044;-71
2023/01/07 08:55:33;;;;;;;4.07;3.63;;;9.90;99.90;;;;;;5079662;28;20070;-71
2023/01/07 08:57:59;;;;;;;5.70;4.68;;;9.80;99.90;;;;;;5097006;28;20399;-71
2023/01/07 09:00:25;;;;;;;6.20;3.97;;;9.90;99.90;;;;;;5079000;28;20434;-72
2023/01/07 09:02:51;;;;;;;7.57;3.97;;;9.80;99.90;;;;;;5079569;28;20087;-72
2023/01/07 09:05:17;;;;;;;4.22;3.67;;;9.80;99.90;;;;;;5096862;28;20086;-71
2023/01/07 09:07:43;;;;;;;6.78;4.18;;;9.90;99.90;;;;;;5096972;28;20055;-72
2023/01/07 09:10:09;;;;;;;4.75;3.50;;;9.90;99.90;;;;;;5096839;28;20543;-73
2023/01/07 09:12:35;;;;;;;6.10;3.78;;;9.80;99.90;;;;;;5079022;28;20391;-73
2023/01/07 09:15:01;;;;;;;5.60;3.80;;;9.90;99.90;;;;;;5078982;28;20055;-72
2023/01/07 09:17:27;;;;;;;5.18;3.60;;;9.80;99.90;;;;;;5096835;28;20048;-73
2023/01/07 09:19:53;;;;;;;5.00;3.58;;;9.80;99.90;;;;;;5096783;28;20043;-73
2023/01/07 09:22:18;;;;;;;5.95;3.67;;;9.90;99.90;;;;;;5078796;28;20075;-73
2023/01/07 09:24:44;;;;;;;5.43;3.53;;;9.90;99.90;;;;;;5096673;28;20109;-73
2023/01/07 09:27:10;;;;;;;3.45;3.08;;;9.80;99.90;;;;;;5096619;28;20463;-72
2023/01/07 09:29:36;;;;;;;4.70;3.50;;;9.90;99.90;;;;;;5097039;28;20083;-73
2023/01/07 09:32:01;;;;;;;4.07;3.25;;;9.90;99.90;;;;;;5079017;28;20438;-73
2023/01/07 09:34:27;;;;;;;3.55;2.83;;;9.80;99.90;;;;;;5096449;28;20048;-74
2023/01/07 09:36:53;;;;;;;3.28;2.55;;;9.90;99.90;;;;;;5078457;28;20047;-72
2023/01/07 09:39:18;;;;;;;6.05;3.20;;;9.90;99.90;;;;;;5095488;28;20048;-72
2023/01/07 09:42:03;;;;;;;4.30;2.40;;;9.90;99.90;;;;;;5078228;28;20475;-72
2023/01/07 09:44:40;;;;;;;4.25;2.70;;;9.90;99.90;;;;;;5079301;28;20044;-70
2023/01/07 09:47:08;;;;;;;3.45;2.97;;;9.90;99.90;;;;;;5097016;28;20048;-69
2023/01/07 09:49:34;;;;;;;3.65;2.45;;;9.90;99.90;;;;;;5096199;28;20052;-72
2023/01/07 09:52:15;;;;;;;3.92;2.35;;;9.90;99.90;;;;;;5061626;28;20061;-71
2023/01/07 09:54:44;;;;;;;3.40;2.35;;;9.90;99.90;;;;;;5096094;28;20048;-73
2023/01/07 09:57:16;;;;;;;3.17;2.55;;;10.00;99.90;;;;;;5077974;28;20480;-73
2023/01/07 09:59:43;;;;;;;3.50;2.47;;;9.90;99.90;;;;;;5078109;28;20062;-73
2023/01/07 10:02:46;;;;;;;3.17;2.70;;;9.90;99.90;;;;;;5095851;28;20044;-72
2023/01/07 10:05:27;;;;;;;3.92;2.47;;;9.90;99.90;;;;;;5077852;28;20105;-72
2023/01/07 10:08:04;;;;;;;4.18;2.63;;;9.90;99.90;;;;;;5095852;28;20047;-72
2023/01/07 10:10:44;;;;;;;2.58;1.95;;;9.90;99.90;;;;;;5077918;28;20044;-73
2023/01/07 10:13:45;;;;;;;3.05;2.35;;;9.90;99.90;;;;;;5078461;28;20084;-73
2023/01/07 10:16:29;;;;;;;4.38;2.83;;;9.90;99.90;;;;;;5095736;28;20074;-73
2023/01/07 10:19:22;;;;;;;3.10;2.00;;;9.90;99.90;;;;;;5095647;28;20087;-73
2023/01/07 10:22:01;;;;;;;5.72;1.90;;;9.90;99.90;;;;;;5095484;28;20048;-72
2023/01/07 10:24:45;;;;;;;2.83;2.00;;;9.90;99.90;;;;;;5096341;28;20119;-72
2023/01/07 10:27:23;;;;;;;3.05;1.88;;;9.90;99.90;;;;;;5077575;28;20052;-72
2023/01/07 10:29:53;;;;;;;3.25;1.70;;;9.90;99.90;;;;;;5077310;28;20050;-69
2023/01/07 10:32:23;;;;;;;2.92;1.80;;;9.90;99.90;;;;;;5095369;28;20047;-70
2023/01/07 10:34:55;;;;;;;1.65;1.38;;;9.90;99.90;;;;;;5095627;28;20039;-69
2023/01/07 10:37:33;;;;;;;2.75;1.23;;;9.90;99.90;;;;;;5095832;28;20083;-69
2023/01/07 10:40:22;;;;;;;2.45;1.70;;;9.90;99.90;;;;;;5095244;28;20044;-69
2023/01/07 10:43:06;;;;;;;3.60;1.23;;;9.90;99.90;;;;;;5086514;28;20048;-71
2023/01/07 10:45:59;;;;;;;1.88;1.40;;;9.90;99.90;;;;;;5077119;28;20127;-71
2023/01/07 10:48:46;;;;;;;1.70;1.27;;;9.90;99.90;;;;;;5077484;28;20091;-71
2023/01/07 10:51:35;;;;;;;2.10;1.10;;;9.90;99.90;;;;;;5094598;28;20428;-70
2023/01/07 10:54:15;;;;;;;2.85;1.40;;;9.90;99.90;;;;;;5094914;28;20450;-70
2023/01/07 10:56:45;;;;;;;1.95;1.30;;;10.00;99.90;;;;;;5094747;28;20048;-70
2023/01/07 10:59:17;;;;;;;2.28;1.15;;;10.00;99.90;;;;;;5095173;28;20098;-70
2023/01/07 11:02:02;;;;;;;3.95;1.60;;;10.00;99.90;;;;;;5094555;28;20098;-71
2023/01/07 11:04:28;;;;;;;1.90;1.20;;;10.10;99.90;;;;;;5094171;28;20055;-72
2023/01/07 11:07:05;;;;;;;1.77;1.10;;;10.10;99.90;;;;;;5093728;28;20074;-71
2023/01/07 11:09:35;;;;;;;2.60;1.13;;;10.10;99.90;;;;;;5077177;28;20055;-71
2023/01/07 11:12:26;;;;;;;1.63;1.02;;;10.10;99.90;;;;;;5094509;28;20040;-71
2023/01/07 11:14:55;;;;;;;2.67;1.00;;;10.10;99.90;;;;;;5059101;28;20059;-70
2023/01/07 11:17:44;;;;;;;1.30;0.90;;;10.10;99.90;;;;;;5094258;28;20052;-70
2023/01/07 11:20:11;;;;;;;1.65;0.80;;;10.20;99.90;;;;;;5094312;28;20084;-70
2023/01/07 11:22:38;;;;;;;1.33;1.10;;;10.20;99.90;;;;;;5094261;28;20074;-70
2023/01/07 11:25:27;;;;;;;1.50;1.02;;;10.20;99.90;;;;;;5076136;28;20457;-70
2023/01/07 11:27:57;;;;;;;1.90;1.08;;;10.20;99.90;;;;;;5094138;28;20051;-70
2023/01/07 11:30:31;;;;;;;1.55;0.80;;;10.20;99.90;;;;;;5076164;28;20139;-70
2023/01/07 11:32:58;;;;;;;1.10;0.80;;;10.20;99.90;;;;;;5094278;28;20048;-71
2023/01/07 11:35:27;;;;;;;1.90;0.90;;;10.30;99.90;;;;;;5094101;28;20055;-70
2023/01/07 11:37:52;;;;;;;1.00;0.70;;;10.30;99.90;;;;;;5094677;28;20058;-70
2023/01/07 11:40:23;;;;;;;1.17;0.80;;;10.30;99.90;;;;;;5094724;28;20048;-70
2023/01/07 11:43:01;;;;;;;1.55;0.70;;;10.30;99.90;;;;;;5094740;28;20040;-70
2023/01/07 11:45:34;;;;;;;1.80;0.80;;;10.30;99.90;;;;;;5094017;28;20048;-70
2023/01/07 11:48:19;;;;;;;1.40;0.80;;;10.30;99.90;;;;;;5095117;28;20125;-71
2023/01/07 11:50:56;;;;;;;2.83;1.10;;;10.30;99.90;;;;;;5094904;28;20467;-71
2023/01/07 11:53:43;;;;;;;1.10;0.90;;;10.30;99.90;;;;;;5093840;28;20078;-70
2023/01/07 11:56:21;;;;;;;1.00;0.80;;;10.30;99.90;;;;;;5094450;28;20456;-70
2023/01/07 11:59:13;;;;;;;1.20;0.70;;;10.40;99.90;;;;;;5093642;28;20052;-71
2023/01/07 12:01:53;;;;;;;2.72;0.82;;;10.40;99.90;;;;;;5084170;28;20044;-71
2023/01/07 12:04:24;;;;;;;1.17;0.68;;;10.40;99.90;;;;;;5093530;28;20083;-70
2023/01/07 12:06:52;;;;;;;0.98;0.80;;;10.40;99.90;;;;;;5094054;28;20388;-70
2023/01/07 12:09:34;;;;;;;1.95;1.00;;;10.40;99.90;;;;;;5093752;28;20048;-70
2023/01/07 12:12:30;;;;;;;1.15;0.80;;;10.40;99.90;;;;;;5076375;28;20044;-70
2023/01/07 12:14:59;;;;;;;2.72;0.73;;;10.40;99.90;;;;;;5093730;28;20472;-70
2023/01/07 12:17:29;;;;;;;1.45;0.90;;;10.40;99.90;;;;;;5093593;28;20044;-71
2023/01/07 12:20:03;;;;;;;0.98;0.73;;;10.40;99.90;;;;;;5076076;28;20102;-71
2023/01/07 12:23:03;;;;;;;2.17;0.90;;;10.40;99.90;;;;;;5093452;28;20040;-70
2023/01/07 12:26:13;;;;;;;0.90;0.60;;;10.40;99.90;;;;;;5074983;28;20489;-70
2023/01/07 12:28:51;;;;;;;2.85;0.90;;;10.40;99.90;;;;;;5046071;28;20056;-70
2023/01/07 12:31:34;;;;;;;1.33;0.80;;;10.40;99.90;;;;;;5076062;28;20492;-70
2023/01/07 12:34:20;;;;;;;1.95;0.70;;;10.40;99.90;;;;;;5076034;28;20051;-70
2023/01/07 12:36:59;;;;;;;0.85;0.63;;;10.40;99.90;;;;;;5093291;28;20136;-70
2023/01/07 12:39:29;;;;;;;1.00;0.70;;;10.40;99.90;;;;;;5093177;28;20496;-70
2023/01/07 12:42:19;;;;;;;1.40;0.70;;;10.40;99.90;;;;;;5093354;28;20460;-70
2023/01/07 12:44:56;;;;;;;1.85;0.77;;;10.50;99.90;;;;;;5093059;28;20093;-70
2023/01/07 12:47:33;;;;;;;0.88;0.68;;;10.50;99.90;;;;;;5058901;28;20126;-71
2023/01/07 12:50:20;;;;;;;1.98;0.75;;;10.50;99.90;;;;;;5042330;28;20048;-70
2023/01/07 12:52:50;;;;;;;2.13;0.60;;;10.50;99.90;;;;;;5093178;28;20040;-70
2023/01/07 12:55:34;;;;;;;1.60;0.80;;;10.50;99.90;;;;;;5093375;28;20055;-70
2023/01/07 12:58:11;;;;;;;1.88;0.80;;;10.50;99.90;;;;;;5076310;28;20074;-70
2023/01/07 13:00:58;;;;;;;1.75;0.70;;;10.50;99.90;;;;;;5058163;28;20415;-69
2023/01/07 13:03:45;;;;;;;1.77;0.80;;;10.50;99.90;;;;;;5076011;28;20094;-69
2023/01/07 13:06:20;;;;;;;1.65;0.90;;;10.60;99.90;;;;;;5093300;28;20055;-70
2023/01/07 13:09:02;;;;;;;2.30;0.80;;;10.50;99.90;;;;;;5075149;28;20101;-70